EGNT

Newcastle Airport

Airport
ICAO code
EGNT
IATA Code
NCL
Summary
ICAO Region
EUR
ICAO Territory
Location

Woolsington, Newcastle, England

Serving
Newcastle
Elevation
266 ft
Coordinates
55° 2' 12" N , 1° 41' 30" W
KCC
Metar
Observation
EGNT 040120Z 08007KT 9999 SCT023 04/02 Q1022
Station
Newcastle
Date/Time
2022-12-04 01:20:00
Wind direction
80°
Wind speed
07 kts
Lowest cloud amount
scattered clouds
Temperature
4°C
Dew point
2°C
Humidity
86%
QNH
1022 hPa
Weather condition
n/a

Description

Domestic and international airport serving Newcastle, Gateshead the north-east of England.

Climatology

Temperate Marine climate/Oceanic climate (Köppen climate classification Cfb). Moderately cool summer and comparatively warm winter with a temperature range of only 14°C. Prevailing south-westerly winds from the Atlantic Ocean.

Runways

Designator Length Width Surface Rops
7/25 2329 46 ASP Yes/Yes

Airport map

Aerial View

Airport accidents

SKYbrary Partners:

Safety knowledge contributed by: